createdAt,value
2022-09-18T00:01:37.052Z,6.80
2022-09-18T00:04:07.468Z,6.80
2022-09-18T00:06:37.373Z,6.80
2022-09-18T00:09:06.965Z,6.80
2022-09-18T00:11:37.334Z,6.80
2022-09-18T00:14:07.093Z,6.80
2022-09-18T00:16:37.036Z,6.80
2022-09-18T00:19:04.430Z,6.80
2022-09-18T00:21:34.393Z,6.80
2022-09-18T00:24:01.823Z,6.80
2022-09-18T00:26:32.223Z,6.80
2022-09-18T00:31:40.904Z,6.80
2022-09-18T00:34:12.264Z,6.70
2022-09-18T00:36:48.109Z,6.70
2022-09-18T00:39:20.922Z,6.70
2022-09-18T00:41:48.068Z,6.70
2022-09-18T00:44:49.581Z,6.70
2022-09-18T00:47:43.417Z,6.60
2022-09-18T00:50:25.247Z,6.60
2022-09-18T00:52:57.038Z,6.60
2022-09-18T00:55:29.314Z,6.60
2022-09-18T00:58:01.709Z,6.50
2022-09-18T01:00:29.887Z,6.40
2022-09-18T01:03:01.364Z,6.40
2022-09-18T01:05:56.062Z,6.30
2022-09-18T01:08:30.996Z,6.30
2022-09-18T01:11:13.417Z,6.30
2022-09-18T01:13:53.865Z,6.30
2022-09-18T01:16:45.960Z,6.30
2022-09-18T01:19:50.369Z,6.30
2022-09-18T01:22:41.536Z,6.30
2022-09-18T01:25:26.669Z,6.30
2022-09-18T01:28:24.559Z,6.30
2022-09-18T01:30:58.005Z,6.40
2022-09-18T01:33:35.183Z,6.40
2022-09-18T01:36:09.090Z,6.40
2022-09-18T01:38:47.194Z,6.40
2022-09-18T01:41:21.294Z,6.40
2022-09-18T01:43:54.348Z,6.40
2022-09-18T01:46:24.407Z,6.50
2022-09-18T01:48:56.949Z,6.50
2022-09-18T01:51:34.479Z,6.50
2022-09-18T01:54:07.905Z,6.50
2022-09-18T01:56:39.295Z,6.50
2022-09-18T01:59:12.729Z,6.50
2022-09-18T02:01:44.894Z,6.50
2022-09-18T02:04:16.595Z,6.50
2022-09-18T02:06:50.088Z,6.60
2022-09-18T02:09:17.086Z,6.60
2022-09-18T02:11:53.271Z,6.60
2022-09-18T02:14:41.439Z,6.50
2022-09-18T02:17:18.860Z,6.50
2022-09-18T02:19:52.544Z,6.60
2022-09-18T02:22:22.451Z,6.50
2022-09-18T02:24:52.174Z,6.50
2022-09-18T02:27:23.664Z,6.50
2022-09-18T02:29:51.583Z,6.60
2022-09-18T02:32:18.881Z,6.60
2022-09-18T02:34:45.954Z,6.50
2022-09-18T02:37:38.723Z,6.60
2022-09-18T02:40:10.625Z,6.60
2022-09-18T02:43:05.421Z,6.60
2022-09-18T02:45:46.417Z,6.60
2022-09-18T02:48:48.083Z,6.60
2022-09-18T02:51:27.377Z,6.60
2022-09-18T02:54:06.437Z,6.60
2022-09-18T02:57:03.951Z,6.60
2022-09-18T02:59:45.249Z,6.60
2022-09-18T03:02:12.738Z,6.70
2022-09-18T03:04:39.847Z,6.70
2022-09-18T03:07:06.734Z,6.70
2022-09-18T03:09:37.134Z,6.70
2022-09-18T03:12:07.251Z,6.70
2022-09-18T03:14:40.080Z,6.70
2022-09-18T03:17:10.336Z,6.70
2022-09-18T03:19:37.061Z,6.70
2022-09-18T03:22:04.226Z,6.70
2022-09-18T03:24:33.643Z,6.70
2022-09-18T03:27:00.651Z,6.70
2022-09-18T03:29:27.454Z,6.70
2022-09-18T03:31:55.186Z,6.80
2022-09-18T03:34:21.967Z,6.80
2022-09-18T03:36:49.016Z,6.80
2022-09-18T03:39:16.417Z,6.80
2022-09-18T03:41:43.239Z,6.80
2022-09-18T03:44:13.175Z,6.70
2022-09-18T03:46:39.981Z,6.70
2022-09-18T03:49:09.911Z,6.70
2022-09-18T03:51:37.157Z,6.70
2022-09-18T03:54:03.997Z,6.70
2022-09-18T03:56:30.794Z,6.80
2022-09-18T03:58:57.776Z,6.80
2022-09-18T04:01:27.319Z,6.80
2022-09-18T04:03:57.420Z,6.80
2022-09-18T04:06:30.051Z,6.80
2022-09-18T04:08:56.982Z,6.80
2022-09-18T04:11:23.638Z,6.80
2022-09-18T04:13:53.413Z,6.80
2022-09-18T04:16:20.455Z,6.80
2022-09-18T04:21:31.861Z,6.90
2022-09-18T04:23:59.235Z,6.80
2022-09-18T04:26:29.008Z,6.80
2022-09-18T04:28:56.041Z,6.80
2022-09-18T04:31:24.954Z,6.90
2022-09-18T04:33:51.814Z,6.90
2022-09-18T04:36:21.222Z,6.80
2022-09-18T04:38:47.894Z,6.90
2022-09-18T04:41:17.607Z,6.80
2022-09-18T04:43:44.590Z,6.90
2022-09-18T04:46:11.411Z,6.90
2022-09-18T04:48:38.188Z,6.90
2022-09-18T04:51:05.285Z,7.00
2022-09-18T04:53:32.263Z,7.00
2022-09-18T04:55:59.023Z,6.90
2022-09-18T04:58:28.293Z,6.90
2022-09-18T05:00:55.138Z,6.90
2022-09-18T05:03:27.733Z,7.00
2022-09-18T05:05:55.124Z,6.90
2022-09-18T05:08:23.266Z,6.90
2022-09-18T05:10:50.381Z,6.90
2022-09-18T05:13:17.176Z,6.90
2022-09-18T05:15:43.945Z,6.90
2022-09-18T05:18:13.184Z,6.90
2022-09-18T05:20:40.138Z,7.00
2022-09-18T05:23:07.422Z,7.00
2022-09-18T05:25:34.129Z,7.00
2022-09-18T05:28:03.031Z,7.00
2022-09-18T05:30:30.906Z,7.00
2022-09-18T05:32:59.963Z,7.00
2022-09-18T05:35:32.169Z,7.00
2022-09-18T05:38:03.213Z,7.10
2022-09-18T05:40:34.536Z,7.10
2022-09-18T05:45:47.659Z,7.10
2022-09-18T05:48:14.633Z,7.10
2022-09-18T05:50:43.238Z,7.20
2022-09-18T05:53:17.743Z,7.20
2022-09-18T05:55:45.166Z,7.20
2022-09-18T05:58:14.486Z,7.10
2022-09-18T06:00:41.442Z,7.00
2022-09-18T06:03:11.408Z,7.00
2022-09-18T06:05:38.847Z,7.00
2022-09-18T06:08:07.756Z,7.10
2022-09-18T06:10:39.722Z,7.10
2022-09-18T06:13:13.075Z,7.10
2022-09-18T06:15:40.158Z,7.20
2022-09-18T06:18:09.140Z,7.20
2022-09-18T06:20:38.368Z,7.20
2022-09-18T06:23:05.406Z,7.30
2022-09-18T06:25:38.144Z,7.30
2022-09-18T06:28:06.803Z,7.30
2022-09-18T06:30:35.338Z,7.40
2022-09-18T06:33:04.713Z,7.40
2022-09-18T06:35:34.386Z,7.60
2022-09-18T06:38:07.993Z,7.60
2022-09-18T06:40:35.970Z,7.70
2022-09-18T06:43:03.272Z,7.70
2022-09-18T06:45:31.471Z,7.80
2022-09-18T06:48:02.606Z,7.90
2022-09-18T06:50:34.549Z,7.90
2022-09-18T06:53:03.096Z,7.90
2022-09-18T06:55:34.143Z,8.00
2022-09-18T06:58:01.328Z,8.20
2022-09-18T07:00:29.494Z,8.20
2022-09-18T07:03:01.641Z,8.20
2022-09-18T07:05:31.274Z,8.30
2022-09-18T07:07:58.689Z,8.30
2022-09-18T07:10:28.639Z,8.30
2022-09-18T07:12:56.827Z,8.50
2022-09-18T07:15:26.235Z,8.60
2022-09-18T07:17:56.414Z,8.60
2022-09-18T07:20:23.068Z,8.60
2022-09-18T07:22:55.076Z,8.90
2022-09-18T07:25:26.512Z,9.10
2022-09-18T07:27:53.495Z,9.10
2022-09-18T07:30:21.134Z,9.10
2022-09-18T07:32:56.036Z,8.90
2022-09-18T07:35:23.019Z,8.70
2022-09-18T07:40:33.158Z,8.70
2022-09-18T07:43:21.004Z,8.80
2022-09-18T07:45:48.049Z,8.90
2022-09-18T07:48:16.298Z,9.10
2022-09-18T07:50:43.038Z,9.20
2022-09-18T07:53:10.382Z,9.10
2022-09-18T07:55:42.510Z,9.10
2022-09-18T07:58:09.840Z,9.10
2022-09-18T08:00:37.793Z,9.10
2022-09-18T08:03:11.097Z,9.20
2022-09-18T08:05:38.849Z,9.30
2022-09-18T08:08:06.375Z,9.40
2022-09-18T08:10:34.132Z,9.40
2022-09-18T08:13:02.638Z,9.40
2022-09-18T08:15:38.793Z,9.40
2022-09-18T08:18:09.184Z,9.20
2022-09-18T08:20:35.859Z,9.00
2022-09-18T08:23:12.431Z,8.70
2022-09-18T08:25:39.552Z,8.50
2022-09-18T08:28:07.812Z,8.20
2022-09-18T08:30:35.222Z,8.10
2022-09-18T08:33:14.785Z,8.10
2022-09-18T08:35:44.591Z,8.00
2022-09-18T08:38:16.485Z,8.00
2022-09-18T08:40:49.450Z,7.90
2022-09-18T08:43:41.103Z,7.90
2022-09-18T08:46:21.932Z,7.80
2022-09-18T08:49:06.198Z,7.80
2022-09-18T08:51:49.505Z,7.80
2022-09-18T08:54:40.798Z,7.70
2022-09-18T08:57:19.188Z,7.60
2022-09-18T09:00:12.408Z,7.70
2022-09-18T09:02:42.478Z,7.90
2022-09-18T09:05:21.539Z,7.90
2022-09-18T09:08:27.304Z,7.90
2022-09-18T09:11:22.149Z,8.00
2022-09-18T09:14:00.867Z,8.00
2022-09-18T09:16:45.534Z,8.00
2022-09-18T09:19:26.701Z,8.00
2022-09-18T09:22:05.457Z,8.00
2022-09-18T09:25:05.751Z,7.90
2022-09-18T09:27:40.470Z,7.90
2022-09-18T09:30:15.497Z,7.90
2022-09-18T09:33:01.833Z,8.00
2022-09-18T09:35:44.812Z,8.10
2022-09-18T09:38:40.427Z,8.20
2022-09-18T09:41:33.143Z,8.40
2022-09-18T09:44:38.305Z,8.40
2022-09-18T09:47:36.064Z,8.30
2022-09-18T09:50:08.781Z,8.30
2022-09-18T09:52:40.152Z,8.40
2022-09-18T09:55:44.252Z,8.40
2022-09-18T09:58:25.871Z,8.40
2022-09-18T10:01:08.673Z,8.50
2022-09-18T10:04:09.748Z,8.40
2022-09-18T10:06:52.123Z,8.40
2022-09-18T10:09:49.765Z,8.20
2022-09-18T10:12:52.401Z,8.10
2022-09-18T10:15:38.880Z,8.10
2022-09-18T10:18:16.219Z,8.20
2022-09-18T10:20:48.301Z,8.30
2022-09-18T10:23:33.904Z,8.50
2022-09-18T10:26:01.956Z,8.70
2022-09-18T10:28:29.861Z,8.80
2022-09-18T10:31:08.118Z,8.90
2022-09-18T10:33:47.058Z,9.00
2022-09-18T10:36:26.002Z,8.80
2022-09-18T10:38:52.801Z,8.60
2022-09-18T10:41:33.964Z,8.60
2022-09-18T10:44:21.250Z,8.50
2022-09-18T10:47:15.368Z,8.60
2022-09-18T10:50:06.363Z,8.70
2022-09-18T10:52:36.755Z,8.70
2022-09-18T10:55:06.960Z,8.60
2022-09-18T10:57:44.161Z,8.50
2022-09-18T11:00:20.382Z,8.40
2022-09-18T11:02:58.105Z,8.40
2022-09-18T11:05:33.525Z,8.30
2022-09-18T11:08:04.728Z,8.30
2022-09-18T11:10:33.186Z,8.20
2022-09-18T11:13:09.626Z,8.20
2022-09-18T11:15:36.841Z,8.10
2022-09-18T11:18:07.551Z,8.10
2022-09-18T11:20:49.950Z,8.10
2022-09-18T11:23:19.783Z,8.10
2022-09-18T11:25:47.251Z,8.00
2022-09-18T11:28:40.753Z,8.20
2022-09-18T11:31:19.233Z,8.40
2022-09-18T11:33:55.884Z,8.50
2022-09-18T11:36:33.269Z,8.50
2022-09-18T11:39:01.899Z,8.40
2022-09-18T11:41:37.628Z,8.50
2022-09-18T11:44:25.063Z,8.60
2022-09-18T11:47:23.835Z,8.70
2022-09-18T11:50:17.979Z,8.90
2022-09-18T11:52:49.075Z,8.80
2022-09-18T11:55:46.790Z,8.70
2022-09-18T11:58:48.485Z,8.50
2022-09-18T12:01:41.235Z,8.50
2022-09-18T12:04:58.486Z,8.60
2022-09-18T12:07:38.193Z,8.60
2022-09-18T12:10:25.625Z,8.70
2022-09-18T12:13:17.844Z,8.80
2022-09-18T12:16:24.231Z,8.70
2022-09-18T12:19:12.345Z,8.70
2022-09-18T12:22:09.420Z,8.60
2022-09-18T12:24:36.177Z,8.50
2022-09-18T12:27:28.049Z,8.60
2022-09-18T12:30:03.946Z,8.70
2022-09-18T12:32:36.486Z,8.70
2022-09-18T12:35:48.799Z,8.60
2022-09-18T12:38:57.896Z,8.50
2022-09-18T12:41:35.887Z,8.40
2022-09-18T12:44:37.927Z,8.50
2022-09-18T12:47:19.615Z,8.40
2022-09-18T12:50:20.482Z,8.40
2022-09-18T12:53:10.398Z,8.50
2022-09-18T12:55:56.376Z,8.50
2022-09-18T12:58:47.743Z,8.60
2022-09-18T13:01:31.811Z,8.70
2022-09-18T13:04:12.779Z,8.60
2022-09-18T13:06:50.767Z,8.50
2022-09-18T13:09:26.011Z,8.50
2022-09-18T13:12:34.387Z,8.60
2022-09-18T13:15:26.003Z,8.60
2022-09-18T13:18:28.751Z,8.60
2022-09-18T13:21:01.409Z,8.50
2022-09-18T13:23:33.535Z,8.60
2022-09-18T13:26:06.447Z,8.50
2022-09-18T13:28:33.747Z,8.50
2022-09-18T13:31:19.548Z,8.50
2022-09-18T13:34:02.228Z,8.60
2022-09-18T13:36:41.884Z,8.60
2022-09-18T13:39:46.053Z,8.50
2022-09-18T13:42:56.471Z,8.50
2022-09-18T13:45:26.474Z,8.50
2022-09-18T13:48:13.633Z,8.40
2022-09-18T13:51:06.062Z,8.40
2022-09-18T13:53:45.439Z,8.40
2022-09-18T13:56:17.626Z,8.50
2022-09-18T13:58:54.595Z,8.50
2022-09-18T14:01:43.627Z,8.40
2022-09-18T14:04:42.951Z,8.50
2022-09-18T14:07:19.195Z,8.50
2022-09-18T14:09:58.919Z,8.40
2022-09-18T14:12:32.172Z,8.30
2022-09-18T14:15:24.658Z,8.30
2022-09-18T14:18:16.953Z,8.10
2022-09-18T14:20:52.600Z,7.90
2022-09-18T14:23:35.526Z,7.90
2022-09-18T14:26:08.126Z,7.80
2022-09-18T14:28:36.335Z,7.90
2022-09-18T14:31:22.776Z,7.90
2022-09-18T14:33:49.455Z,7.90
2022-09-18T14:36:18.921Z,8.00
2022-09-18T14:38:45.898Z,7.90
2022-09-18T14:41:22.859Z,7.90
2022-09-18T14:44:02.024Z,8.00
2022-09-18T14:46:32.824Z,8.10
2022-09-18T14:49:02.141Z,8.20
2022-09-18T14:51:44.838Z,8.20
2022-09-18T14:54:24.485Z,8.30
2022-09-18T14:56:55.232Z,8.30
2022-09-18T14:59:24.394Z,8.30
2022-09-18T15:01:54.682Z,8.30
2022-09-18T15:04:26.178Z,8.30
2022-09-18T15:06:54.767Z,8.30
2022-09-18T15:09:28.732Z,8.30
2022-09-18T15:12:02.609Z,8.20
2022-09-18T15:14:42.685Z,8.20
2022-09-18T15:17:27.332Z,8.20
2022-09-18T15:20:03.173Z,8.20
2022-09-18T15:22:30.708Z,8.20
2022-09-18T15:25:00.913Z,8.10
2022-09-18T15:27:36.439Z,8.10
2022-09-18T15:30:14.491Z,8.10
2022-09-18T15:32:44.857Z,8.10
2022-09-18T15:35:30.908Z,8.10
2022-09-18T15:38:03.056Z,8.10
2022-09-18T15:40:38.664Z,8.10
2022-09-18T15:43:30.659Z,8.00
2022-09-18T15:46:06.906Z,8.00
2022-09-18T15:48:38.447Z,8.00
2022-09-18T15:51:33.183Z,8.00
2022-09-18T15:54:05.317Z,8.00
2022-09-18T15:56:37.240Z,7.90
2022-09-18T15:59:15.841Z,7.90
2022-09-18T16:01:47.882Z,7.90
2022-09-18T16:04:33.829Z,7.90
2022-09-18T16:07:08.956Z,7.80
2022-09-18T16:09:44.162Z,7.80
2022-09-18T16:12:29.684Z,7.80
2022-09-18T16:15:11.605Z,7.80
2022-09-18T16:17:56.993Z,7.80
2022-09-18T16:20:40.381Z,7.80
2022-09-18T16:23:35.395Z,7.80
2022-09-18T16:26:06.064Z,7.80
2022-09-18T16:28:43.352Z,7.80
2022-09-18T16:31:21.442Z,7.70
2022-09-18T16:33:55.607Z,7.70
2022-09-18T16:36:31.469Z,7.70
2022-09-18T16:39:03.930Z,7.70
2022-09-18T16:41:31.425Z,7.70
2022-09-18T16:43:58.408Z,7.60
2022-09-18T16:46:30.149Z,7.30
2022-09-18T16:49:07.149Z,7.20
2022-09-18T16:51:38.537Z,7.10
2022-09-18T16:54:06.885Z,7.00
2022-09-18T16:56:40.321Z,6.90
2022-09-18T16:59:10.245Z,7.00
2022-09-18T17:02:00.520Z,6.90
2022-09-18T17:04:29.073Z,6.90
2022-09-18T17:06:55.799Z,6.90
2022-09-18T17:09:24.193Z,6.80
2022-09-18T17:11:52.356Z,6.80
2022-09-18T17:14:19.986Z,6.80
2022-09-18T17:16:47.013Z,6.80
2022-09-18T17:19:17.313Z,6.70
2022-09-18T17:21:47.514Z,6.70
2022-09-18T17:24:14.531Z,6.70
2022-09-18T17:26:44.368Z,6.70
2022-09-18T17:29:11.437Z,6.80
2022-09-18T17:31:41.439Z,6.80
2022-09-18T17:34:16.788Z,6.80
2022-09-18T17:36:43.521Z,6.80
2022-09-18T17:39:13.726Z,6.70
2022-09-18T17:41:50.243Z,6.70
2022-09-18T17:44:17.451Z,6.70
2022-09-18T17:46:51.332Z,6.70
2022-09-18T17:49:19.209Z,6.70
2022-09-18T17:51:46.679Z,6.70
2022-09-18T17:54:13.477Z,6.60
2022-09-18T17:56:40.517Z,6.60
2022-09-18T17:59:09.367Z,6.60
2022-09-18T18:01:38.464Z,6.60
2022-09-18T18:04:06.601Z,6.60
2022-09-18T18:06:37.428Z,6.60
2022-09-18T18:09:06.929Z,6.50
2022-09-18T18:11:40.314Z,6.50
2022-09-18T18:14:07.328Z,6.50
2022-09-18T18:16:34.999Z,6.50
2022-09-18T18:19:04.734Z,6.50
2022-09-18T18:21:33.424Z,6.50
2022-09-18T18:24:04.768Z,6.50
2022-09-18T18:26:31.686Z,6.40
2022-09-18T18:29:00.921Z,6.50
2022-09-18T18:31:31.223Z,6.50
2022-09-18T18:33:58.082Z,6.50
2022-09-18T18:36:28.036Z,6.50
2022-09-18T18:39:00.089Z,6.50
2022-09-18T18:41:30.303Z,6.50
2022-09-18T18:44:06.537Z,6.50
2022-09-18T18:46:40.103Z,6.50
2022-09-18T18:49:10.536Z,6.50
2022-09-18T18:51:50.232Z,6.50
2022-09-18T18:54:19.978Z,6.50
2022-09-18T18:56:47.560Z,6.50
2022-09-18T18:59:18.638Z,6.40
2022-09-18T19:01:45.818Z,6.30
2022-09-18T19:04:14.923Z,6.10
2022-09-18T19:06:47.574Z,6.10
2022-09-18T19:09:29.532Z,6.00
2022-09-18T19:11:58.370Z,5.90
2022-09-18T19:14:31.830Z,5.80
2022-09-18T19:16:59.800Z,5.70
2022-09-18T19:19:29.495Z,5.60
2022-09-18T19:22:00.261Z,5.60
2022-09-18T19:24:31.115Z,5.50
2022-09-18T19:27:04.018Z,5.50
2022-09-18T19:29:31.699Z,5.50
2022-09-18T19:31:59.500Z,5.50
2022-09-18T19:34:33.912Z,5.50
2022-09-18T19:37:00.827Z,5.40
2022-09-18T19:39:28.451Z,5.30
2022-09-18T19:42:06.409Z,5.30
2022-09-18T19:44:38.953Z,5.20
2022-09-18T19:47:34.943Z,5.30
2022-09-18T19:50:03.480Z,5.20
2022-09-18T19:52:30.665Z,5.20
2022-09-18T19:54:58.677Z,5.20
2022-09-18T19:57:30.150Z,5.30
2022-09-18T19:59:59.169Z,5.20
2022-09-18T20:02:25.898Z,5.20
2022-09-18T20:04:52.844Z,5.10
2022-09-18T20:07:23.090Z,5.10
2022-09-18T20:09:50.329Z,5.10
2022-09-18T20:12:19.694Z,5.10
2022-09-18T20:14:47.005Z,5.20
2022-09-18T20:17:20.566Z,5.10
2022-09-18T20:19:47.935Z,5.10
2022-09-18T20:22:18.424Z,5.20
2022-09-18T20:24:45.259Z,5.20
2022-09-18T20:27:13.018Z,5.10
2022-09-18T20:29:47.963Z,5.10
2022-09-18T20:32:17.906Z,5.10
2022-09-18T20:34:47.999Z,5.10
2022-09-18T20:37:15.461Z,5.10
2022-09-18T20:39:44.818Z,5.00
2022-09-18T20:42:17.247Z,5.00
2022-09-18T20:44:47.138Z,5.00
2022-09-18T20:47:13.930Z,4.90
2022-09-18T20:49:46.261Z,4.90
2022-09-18T20:52:14.562Z,4.90
2022-09-18T20:54:44.803Z,5.00
2022-09-18T20:57:18.507Z,5.00
2022-09-18T20:59:48.205Z,4.90
2022-09-18T21:02:18.904Z,4.90
2022-09-18T21:04:50.056Z,4.90
2022-09-18T21:07:21.850Z,4.80
2022-09-18T21:09:54.451Z,4.80
2022-09-18T21:12:23.728Z,4.70
2022-09-18T21:14:50.814Z,4.70
2022-09-18T21:17:20.742Z,4.70
2022-09-18T21:19:50.563Z,4.70
2022-09-18T21:22:20.662Z,4.70
2022-09-18T21:24:48.018Z,4.70
2022-09-18T21:27:14.874Z,4.70
2022-09-18T21:29:41.771Z,4.70
2022-09-18T21:32:09.366Z,4.70
2022-09-18T21:34:36.123Z,4.70
2022-09-18T21:37:12.760Z,4.80
2022-09-18T21:39:44.521Z,4.80
2022-09-18T21:42:11.959Z,4.80
2022-09-18T21:44:39.221Z,4.70
2022-09-18T21:47:11.191Z,4.70
2022-09-18T21:49:41.333Z,4.80
2022-09-18T21:52:15.201Z,4.70
2022-09-18T21:54:44.617Z,4.80
2022-09-18T21:57:16.802Z,4.80
2022-09-18T21:59:43.535Z,4.80
2022-09-18T22:02:14.720Z,4.80
2022-09-18T22:04:47.762Z,4.80
2022-09-18T22:07:14.937Z,4.70
2022-09-18T22:09:48.027Z,4.70
2022-09-18T22:12:18.634Z,4.70
2022-09-18T22:14:48.381Z,4.70
2022-09-18T22:17:15.622Z,4.70
2022-09-18T22:19:42.790Z,4.70
2022-09-18T22:22:18.782Z,4.80
2022-09-18T22:24:46.041Z,4.80
2022-09-18T22:27:13.085Z,4.90
2022-09-18T22:29:41.306Z,4.90
2022-09-18T22:32:10.178Z,4.90
2022-09-18T22:34:41.761Z,4.90
2022-09-18T22:37:10.988Z,4.90
2022-09-18T22:39:38.055Z,5.00
2022-09-18T22:42:04.921Z,5.00
2022-09-18T22:44:35.180Z,5.00
2022-09-18T22:47:03.030Z,5.10
2022-09-18T22:49:30.289Z,5.10
2022-09-18T22:51:57.779Z,5.10
2022-09-18T22:54:27.010Z,5.10
2022-09-18T22:56:57.883Z,5.10
2022-09-18T22:59:29.224Z,5.20
2022-09-18T23:02:02.475Z,5.20
2022-09-18T23:04:31.821Z,5.20
2022-09-18T23:06:59.488Z,5.20
2022-09-18T23:09:30.257Z,5.20
2022-09-18T23:11:58.708Z,5.20
2022-09-18T23:14:28.534Z,5.20
2022-09-18T23:16:58.926Z,5.20
2022-09-18T23:19:29.091Z,5.20
2022-09-18T23:21:56.772Z,5.20
2022-09-18T23:24:24.876Z,5.20
2022-09-18T23:26:54.025Z,5.20
2022-09-18T23:29:25.505Z,5.20
2022-09-18T23:31:53.914Z,5.20
2022-09-18T23:34:30.054Z,5.20
2022-09-18T23:36:58.962Z,5.30
2022-09-18T23:39:31.629Z,5.30
2022-09-18T23:42:08.977Z,5.30
2022-09-18T23:44:37.257Z,5.20
2022-09-18T23:47:04.663Z,5.30
2022-09-18T23:49:31.759Z,5.30
2022-09-18T23:52:02.637Z,5.30
2022-09-18T23:54:32.344Z,5.30
2022-09-18T23:56:59.259Z,5.30
2022-09-18T23:59:27.412Z,5.30
